sensor_id;sensor_type;location;lat;lon;timestamp;temperature;humidity
67141;DHT22;54058;52.010;5.546;2022-07-03T00:00:37;18.40;66.30
67141;DHT22;54058;52.010;5.546;2022-07-03T00:03:03;18.40;66.50
67141;DHT22;54058;52.010;5.546;2022-07-03T00:05:28;18.40;66.50
67141;DHT22;54058;52.010;5.546;2022-07-03T00:07:54;18.30;66.30
67141;DHT22;54058;52.010;5.546;2022-07-03T00:10:19;18.20;66.80
67141;DHT22;54058;52.010;5.546;2022-07-03T00:12:45;18.10;66.80
67141;DHT22;54058;52.010;5.546;2022-07-03T00:15:10;18.10;66.80
67141;DHT22;54058;52.010;5.546;2022-07-03T00:17:36;18.10;66.90
67141;DHT22;54058;52.010;5.546;2022-07-03T00:20:01;18.00;66.80
67141;DHT22;54058;52.010;5.546;2022-07-03T00:22:27;17.90;66.90
67141;DHT22;54058;52.010;5.546;2022-07-03T00:25:04;17.80;67.20
67141;DHT22;54058;52.010;5.546;2022-07-03T00:27:31;17.70;67.00
67141;DHT22;54058;52.010;5.546;2022-07-03T00:29:58;17.60;67.10
67141;DHT22;54058;52.010;5.546;2022-07-03T00:32:24;17.50;67.10
67141;DHT22;54058;52.010;5.546;2022-07-03T00:34:51;17.50;66.80
67141;DHT22;54058;52.010;5.546;2022-07-03T00:37:17;17.50;67.00
67141;DHT22;54058;52.010;5.546;2022-07-03T00:39:43;17.60;67.50
67141;DHT22;54058;52.010;5.546;2022-07-03T00:42:09;17.60;67.70
67141;DHT22;54058;52.010;5.546;2022-07-03T00:44:42;17.60;67.50
67141;DHT22;54058;52.010;5.546;2022-07-03T00:47:08;17.50;66.90
67141;DHT22;54058;52.010;5.546;2022-07-03T00:49:33;17.40;67.30
67141;DHT22;54058;52.010;5.546;2022-07-03T00:52:03;17.40;67.40
67141;DHT22;54058;52.010;5.546;2022-07-03T00:54:28;17.30;67.60
67141;DHT22;54058;52.010;5.546;2022-07-03T00:56:57;17.30;67.50
67141;DHT22;54058;52.010;5.546;2022-07-03T00:59:24;17.30;67.50
67141;DHT22;54058;52.010;5.546;2022-07-03T01:01:52;17.30;67.70
67141;DHT22;54058;52.010;5.546;2022-07-03T01:07:11;17.30;67.90
67141;DHT22;54058;52.010;5.546;2022-07-03T01:12:25;17.30;67.80
67141;DHT22;54058;52.010;5.546;2022-07-03T01:15:05;17.30;67.20
67141;DHT22;54058;52.010;5.546;2022-07-03T01:17:34;17.30;67.90
67141;DHT22;54058;52.010;5.546;2022-07-03T01:20:02;17.20;67.80
67141;DHT22;54058;52.010;5.546;2022-07-03T01:23:29;17.20;68.00
67141;DHT22;54058;52.010;5.546;2022-07-03T01:25:23;17.20;68.00
67141;DHT22;54058;52.010;5.546;2022-07-03T01:30:15;17.20;67.70
67141;DHT22;54058;52.010;5.546;2022-07-03T01:32:42;17.20;68.10
67141;DHT22;54058;52.010;5.546;2022-07-03T01:35:08;17.20;67.60
67141;DHT22;54058;52.010;5.546;2022-07-03T01:37:34;17.10;67.40
67141;DHT22;54058;52.010;5.546;2022-07-03T01:40:02;17.20;67.90
67141;DHT22;54058;52.010;5.546;2022-07-03T01:42:28;17.10;67.60
67141;DHT22;54058;52.010;5.546;2022-07-03T01:44:53;17.00;67.90
67141;DHT22;54058;52.010;5.546;2022-07-03T01:47:20;17.00;67.90
67141;DHT22;54058;52.010;5.546;2022-07-03T01:49:48;17.00;68.30
67141;DHT22;54058;52.010;5.546;2022-07-03T01:52:14;17.00;67.40
67141;DHT22;54058;52.010;5.546;2022-07-03T01:54:40;17.00;67.80
67141;DHT22;54058;52.010;5.546;2022-07-03T01:57:07;17.00;68.10
67141;DHT22;54058;52.010;5.546;2022-07-03T01:59:33;17.00;67.50
67141;DHT22;54058;52.010;5.546;2022-07-03T02:02:17;17.10;67.40
67141;DHT22;54058;52.010;5.546;2022-07-03T02:12:23;17.10;67.70
67141;DHT22;54058;52.010;5.546;2022-07-03T02:14:54;17.10;67.80
67141;DHT22;54058;52.010;5.546;2022-07-03T02:17:23;17.10;68.00
67141;DHT22;54058;52.010;5.546;2022-07-03T02:22:15;17.10;67.40
67141;DHT22;54058;52.010;5.546;2022-07-03T02:24:44;17.00;67.90
67141;DHT22;54058;52.010;5.546;2022-07-03T02:27:39;17.00;67.00
67141;DHT22;54058;52.010;5.546;2022-07-03T02:29:59;16.90;67.80
67141;DHT22;54058;52.010;5.546;2022-07-03T02:32:26;16.90;67.70
67141;DHT22;54058;52.010;5.546;2022-07-03T02:34:58;17.00;67.20
67141;DHT22;54058;52.010;5.546;2022-07-03T02:37:27;16.90;67.70
67141;DHT22;54058;52.010;5.546;2022-07-03T02:40:00;16.90;67.30
67141;DHT22;54058;52.010;5.546;2022-07-03T02:44:52;16.80;67.90
67141;DHT22;54058;52.010;5.546;2022-07-03T02:47:23;16.80;67.90
67141;DHT22;54058;52.010;5.546;2022-07-03T02:50:04;16.80;68.00
67141;DHT22;54058;52.010;5.546;2022-07-03T02:58:05;16.60;68.80
67141;DHT22;54058;52.010;5.546;2022-07-03T03:00:35;16.60;68.90
67141;DHT22;54058;52.010;5.546;2022-07-03T03:03:02;16.60;68.70
67141;DHT22;54058;52.010;5.546;2022-07-03T03:05:35;16.60;68.80
67141;DHT22;54058;52.010;5.546;2022-07-03T03:10:28;16.40;68.40
67141;DHT22;54058;52.010;5.546;2022-07-03T03:13:04;16.40;68.70
67141;DHT22;54058;52.010;5.546;2022-07-03T03:15:30;16.40;68.40
67141;DHT22;54058;52.010;5.546;2022-07-03T03:17:56;16.30;68.70
67141;DHT22;54058;52.010;5.546;2022-07-03T03:20:27;16.40;68.70
67141;DHT22;54058;52.010;5.546;2022-07-03T03:22:58;16.40;68.90
67141;DHT22;54058;52.010;5.546;2022-07-03T03:25:24;16.30;68.90
67141;DHT22;54058;52.010;5.546;2022-07-03T03:27:50;16.30;68.50
67141;DHT22;54058;52.010;5.546;2022-07-03T03:30:15;16.30;68.60
67141;DHT22;54058;52.010;5.546;2022-07-03T03:32:41;16.40;68.80
67141;DHT22;54058;52.010;5.546;2022-07-03T03:35:07;16.40;68.70
67141;DHT22;54058;52.010;5.546;2022-07-03T03:37:32;16.40;68.70
67141;DHT22;54058;52.010;5.546;2022-07-03T03:39:58;16.50;68.50
67141;DHT22;54058;52.010;5.546;2022-07-03T03:42:23;16.60;68.50
67141;DHT22;54058;52.010;5.546;2022-07-03T03:44:49;16.70;68.10
67141;DHT22;54058;52.010;5.546;2022-07-03T03:47:14;16.70;68.00
67141;DHT22;54058;52.010;5.546;2022-07-03T03:49:40;16.70;68.10
67141;DHT22;54058;52.010;5.546;2022-07-03T03:52:06;16.80;68.00
67141;DHT22;54058;52.010;5.546;2022-07-03T03:54:31;16.80;67.80
67141;DHT22;54058;52.010;5.546;2022-07-03T03:56:57;16.90;67.60
67141;DHT22;54058;52.010;5.546;2022-07-03T03:59:22;17.00;67.70
67141;DHT22;54058;52.010;5.546;2022-07-03T04:01:48;17.10;67.50
67141;DHT22;54058;52.010;5.546;2022-07-03T04:04:13;17.20;67.70
67141;DHT22;54058;52.010;5.546;2022-07-03T04:06:43;17.40;67.60
67141;DHT22;54058;52.010;5.546;2022-07-03T04:09:08;17.60;67.50
67141;DHT22;54058;52.010;5.546;2022-07-03T04:11:34;17.60;66.90
67141;DHT22;54058;52.010;5.546;2022-07-03T04:13:59;17.60;66.60
67141;DHT22;54058;52.010;5.546;2022-07-03T04:16:25;17.50;66.70
67141;DHT22;54058;52.010;5.546;2022-07-03T04:18:50;17.50;66.30
67141;DHT22;54058;52.010;5.546;2022-07-03T04:21:16;17.50;66.80
67141;DHT22;54058;52.010;5.546;2022-07-03T04:23:41;17.50;66.70
67141;DHT22;54058;52.010;5.546;2022-07-03T04:26:07;17.50;66.70
67141;DHT22;54058;52.010;5.546;2022-07-03T04:28:32;17.60;66.90
67141;DHT22;54058;52.010;5.546;2022-07-03T04:30:58;17.60;66.80
67141;DHT22;54058;52.010;5.546;2022-07-03T04:33:23;17.70;67.40
67141;DHT22;54058;52.010;5.546;2022-07-03T04:35:49;17.80;67.40
67141;DHT22;54058;52.010;5.546;2022-07-03T04:38:14;18.30;68.00
67141;DHT22;54058;52.010;5.546;2022-07-03T04:40:40;18.70;67.30
67141;DHT22;54058;52.010;5.546;2022-07-03T04:43:05;18.80;66.60
67141;DHT22;54058;52.010;5.546;2022-07-03T04:45:31;19.10;66.30
67141;DHT22;54058;52.010;5.546;2022-07-03T04:47:56;19.00;65.40
67141;DHT22;54058;52.010;5.546;2022-07-03T04:50:22;19.20;66.40
67141;DHT22;54058;52.010;5.546;2022-07-03T04:52:47;19.60;66.00
67141;DHT22;54058;52.010;5.546;2022-07-03T04:55:13;19.90;65.70
67141;DHT22;54058;52.010;5.546;2022-07-03T04:57:38;20.10;65.40
67141;DHT22;54058;52.010;5.546;2022-07-03T05:00:04;20.30;64.50
67141;DHT22;54058;52.010;5.546;2022-07-03T05:02:30;20.10;63.90
67141;DHT22;54058;52.010;5.546;2022-07-03T05:04:55;19.90;63.60
67141;DHT22;54058;52.010;5.546;2022-07-03T05:07:21;19.90;64.00
67141;DHT22;54058;52.010;5.546;2022-07-03T05:09:46;19.80;64.00
67141;DHT22;54058;52.010;5.546;2022-07-03T05:12:12;19.70;64.10
67141;DHT22;54058;52.010;5.546;2022-07-03T05:14:37;19.70;64.30
67141;DHT22;54058;52.010;5.546;2022-07-03T05:17:03;19.70;64.70
67141;DHT22;54058;52.010;5.546;2022-07-03T05:19:28;19.60;64.50
67141;DHT22;54058;52.010;5.546;2022-07-03T05:21:54;19.60;64.60
67141;DHT22;54058;52.010;5.546;2022-07-03T05:24:19;19.60;64.30
67141;DHT22;54058;52.010;5.546;2022-07-03T05:26:45;19.50;64.90
67141;DHT22;54058;52.010;5.546;2022-07-03T05:29:10;19.40;64.50
67141;DHT22;54058;52.010;5.546;2022-07-03T05:31:36;19.30;65.60
67141;DHT22;54058;52.010;5.546;2022-07-03T05:34:01;19.30;65.20
67141;DHT22;54058;52.010;5.546;2022-07-03T05:36:27;19.20;65.40
67141;DHT22;54058;52.010;5.546;2022-07-03T05:38:52;19.20;65.70
67141;DHT22;54058;52.010;5.546;2022-07-03T05:41:56;19.30;66.00
67141;DHT22;54058;52.010;5.546;2022-07-03T05:44:21;19.50;66.20
67141;DHT22;54058;52.010;5.546;2022-07-03T05:46:47;19.70;66.10
67141;DHT22;54058;52.010;5.546;2022-07-03T05:49:12;19.80;65.90
67141;DHT22;54058;52.010;5.546;2022-07-03T05:51:38;19.90;65.50
67141;DHT22;54058;52.010;5.546;2022-07-03T05:54:03;20.00;65.00
67141;DHT22;54058;52.010;5.546;2022-07-03T05:56:29;20.00;65.50
67141;DHT22;54058;52.010;5.546;2022-07-03T05:58:54;20.00;65.70
67141;DHT22;54058;52.010;5.546;2022-07-03T06:01:20;20.00;65.60
67141;DHT22;54058;52.010;5.546;2022-07-03T06:03:45;20.00;65.50
67141;DHT22;54058;52.010;5.546;2022-07-03T06:06:11;20.10;65.60
67141;DHT22;54058;52.010;5.546;2022-07-03T06:08:36;20.00;65.30
67141;DHT22;54058;52.010;5.546;2022-07-03T06:11:02;20.00;65.60
67141;DHT22;54058;52.010;5.546;2022-07-03T06:13:27;20.00;65.50
67141;DHT22;54058;52.010;5.546;2022-07-03T06:15:53;20.00;65.60
67141;DHT22;54058;52.010;5.546;2022-07-03T06:18:18;20.00;65.60
67141;DHT22;54058;52.010;5.546;2022-07-03T06:20:44;20.00;65.60
67141;DHT22;54058;52.010;5.546;2022-07-03T06:23:09;20.10;65.70
67141;DHT22;54058;52.010;5.546;2022-07-03T06:25:35;20.10;66.20
67141;DHT22;54058;52.010;5.546;2022-07-03T06:28:00;20.20;65.80
67141;DHT22;54058;52.010;5.546;2022-07-03T06:30:26;20.20;66.10
67141;DHT22;54058;52.010;5.546;2022-07-03T06:32:51;20.20;65.90
67141;DHT22;54058;52.010;5.546;2022-07-03T06:35:17;20.20;65.60
67141;DHT22;54058;52.010;5.546;2022-07-03T06:37:42;20.20;66.10
67141;DHT22;54058;52.010;5.546;2022-07-03T06:40:08;20.60;66.50
67141;DHT22;54058;52.010;5.546;2022-07-03T06:42:33;21.40;66.20
67141;DHT22;54058;52.010;5.546;2022-07-03T06:44:59;22.30;64.80
67141;DHT22;54058;52.010;5.546;2022-07-03T06:47:24;23.00;63.00
67141;DHT22;54058;52.010;5.546;2022-07-03T06:49:50;23.50;62.30
67141;DHT22;54058;52.010;5.546;2022-07-03T06:52:16;24.20;61.70
67141;DHT22;54058;52.010;5.546;2022-07-03T06:54:41;24.80;59.10
67141;DHT22;54058;52.010;5.546;2022-07-03T06:57:09;25.20;58.30
67141;DHT22;54058;52.010;5.546;2022-07-03T06:59:35;25.50;58.60
67141;DHT22;54058;52.010;5.546;2022-07-03T07:02:00;26.10;58.10
67141;DHT22;54058;52.010;5.546;2022-07-03T07:04:26;26.30;57.20
67141;DHT22;54058;52.010;5.546;2022-07-03T07:06:52;26.30;57.30
67141;DHT22;54058;52.010;5.546;2022-07-03T07:09:17;26.20;58.50
67141;DHT22;54058;52.010;5.546;2022-07-03T07:11:43;26.30;59.40
67141;DHT22;54058;52.010;5.546;2022-07-03T07:14:08;26.20;57.90
67141;DHT22;54058;52.010;5.546;2022-07-03T07:16:34;26.00;58.60
67141;DHT22;54058;52.010;5.546;2022-07-03T07:18:59;25.90;59.00
67141;DHT22;54058;52.010;5.546;2022-07-03T07:21:25;25.60;59.00
67141;DHT22;54058;52.010;5.546;2022-07-03T07:23:50;25.20;59.20
67141;DHT22;54058;52.010;5.546;2022-07-03T07:26:16;25.20;59.90
67141;DHT22;54058;52.010;5.546;2022-07-03T07:28:43;25.20;57.20
67141;DHT22;54058;52.010;5.546;2022-07-03T07:31:09;25.00;59.40
67141;DHT22;54058;52.010;5.546;2022-07-03T07:33:34;24.80;59.00
67141;DHT22;54058;52.010;5.546;2022-07-03T07:36:00;24.50;58.90
67141;DHT22;54058;52.010;5.546;2022-07-03T07:38:25;24.30;59.00
67141;DHT22;54058;52.010;5.546;2022-07-03T07:40:51;24.20;60.50
67141;DHT22;54058;52.010;5.546;2022-07-03T07:43:16;24.10;59.60
67141;DHT22;54058;52.010;5.546;2022-07-03T07:45:42;24.10;60.10
67141;DHT22;54058;52.010;5.546;2022-07-03T07:48:07;23.90;62.70
67141;DHT22;54058;52.010;5.546;2022-07-03T07:50:33;23.70;61.10
67141;DHT22;54058;52.010;5.546;2022-07-03T07:52:58;23.60;62.30
67141;DHT22;54058;52.010;5.546;2022-07-03T07:55:24;23.50;62.00
67141;DHT22;54058;52.010;5.546;2022-07-03T07:57:50;23.20;60.30
67141;DHT22;54058;52.010;5.546;2022-07-03T08:00:16;23.10;61.80
67141;DHT22;54058;52.010;5.546;2022-07-03T08:02:43;23.10;62.10
67141;DHT22;54058;52.010;5.546;2022-07-03T08:05:27;23.10;61.30
67141;DHT22;54058;52.010;5.546;2022-07-03T08:08:05;23.10;61.50
67141;DHT22;54058;52.010;5.546;2022-07-03T08:10:41;23.20;62.10
67141;DHT22;54058;52.010;5.546;2022-07-03T08:13:07;23.30;61.70
67141;DHT22;54058;52.010;5.546;2022-07-03T08:15:33;23.50;61.30
67141;DHT22;54058;52.010;5.546;2022-07-03T08:17:58;23.50;61.80
67141;DHT22;54058;52.010;5.546;2022-07-03T08:20:24;23.50;60.90
67141;DHT22;54058;52.010;5.546;2022-07-03T08:22:49;23.60;60.90
67141;DHT22;54058;52.010;5.546;2022-07-03T08:25:15;23.80;59.80
67141;DHT22;54058;52.010;5.546;2022-07-03T08:27:40;24.20;60.00
67141;DHT22;54058;52.010;5.546;2022-07-03T08:30:06;24.50;59.10
67141;DHT22;54058;52.010;5.546;2022-07-03T08:32:32;24.50;59.50
67141;DHT22;54058;52.010;5.546;2022-07-03T08:34:57;24.60;58.10
67141;DHT22;54058;52.010;5.546;2022-07-03T08:37:23;24.80;58.40
67141;DHT22;54058;52.010;5.546;2022-07-03T08:39:48;25.00;58.40
67141;DHT22;54058;52.010;5.546;2022-07-03T08:42:14;25.30;59.90
67141;DHT22;54058;52.010;5.546;2022-07-03T08:44:41;25.50;56.70
67141;DHT22;54058;52.010;5.546;2022-07-03T08:47:07;25.80;58.80
67141;DHT22;54058;52.010;5.546;2022-07-03T08:49:36;26.10;57.40
67141;DHT22;54058;52.010;5.546;2022-07-03T08:52:02;26.30;56.70
67141;DHT22;54058;52.010;5.546;2022-07-03T08:54:29;26.50;54.90
67141;DHT22;54058;52.010;5.546;2022-07-03T08:56:54;26.90;55.00
67141;DHT22;54058;52.010;5.546;2022-07-03T08:59:20;27.10;55.60
67141;DHT22;54058;52.010;5.546;2022-07-03T09:01:46;27.20;55.20
67141;DHT22;54058;52.010;5.546;2022-07-03T09:04:12;27.30;56.40
67141;DHT22;54058;52.010;5.546;2022-07-03T09:06:40;27.50;54.30
67141;DHT22;54058;52.010;5.546;2022-07-03T09:09:06;27.50;54.80
67141;DHT22;54058;52.010;5.546;2022-07-03T09:11:32;27.40;56.50
67141;DHT22;54058;52.010;5.546;2022-07-03T09:13:57;27.40;57.40
67141;DHT22;54058;52.010;5.546;2022-07-03T09:16:23;27.40;59.00
67141;DHT22;54058;52.010;5.546;2022-07-03T09:18:48;27.40;56.40
67141;DHT22;54058;52.010;5.546;2022-07-03T09:21:15;27.40;53.50
67141;DHT22;54058;52.010;5.546;2022-07-03T09:23:41;27.40;53.40
67141;DHT22;54058;52.010;5.546;2022-07-03T09:26:11;27.40;53.50
67141;DHT22;54058;52.010;5.546;2022-07-03T09:28:41;27.30;54.40
67141;DHT22;54058;52.010;5.546;2022-07-03T09:31:14;27.30;54.50
67141;DHT22;54058;52.010;5.546;2022-07-03T09:33:59;26.90;55.20
67141;DHT22;54058;52.010;5.546;2022-07-03T09:36:38;26.70;54.70
67141;DHT22;54058;52.010;5.546;2022-07-03T09:44:43;27.00;55.30
67141;DHT22;54058;52.010;5.546;2022-07-03T09:47:19;27.20;55.00
67141;DHT22;54058;52.010;5.546;2022-07-03T09:57:42;27.10;54.30
67141;DHT22;54058;52.010;5.546;2022-07-03T10:03:02;27.80;52.20
67141;DHT22;54058;52.010;5.546;2022-07-03T10:05:36;27.90;52.30
67141;DHT22;54058;52.010;5.546;2022-07-03T10:10:31;27.60;53.00
67141;DHT22;54058;52.010;5.546;2022-07-03T10:12:57;27.30;53.30
67141;DHT22;54058;52.010;5.546;2022-07-03T10:15:23;27.10;52.50
67141;DHT22;54058;52.010;5.546;2022-07-03T10:17:50;27.10;53.50
67141;DHT22;54058;52.010;5.546;2022-07-03T10:20:19;27.20;53.90
67141;DHT22;54058;52.010;5.546;2022-07-03T10:22:48;27.40;53.80
67141;DHT22;54058;52.010;5.546;2022-07-03T10:25:14;27.40;54.90
67141;DHT22;54058;52.010;5.546;2022-07-03T10:27:39;27.30;53.00
67141;DHT22;54058;52.010;5.546;2022-07-03T10:30:05;26.90;52.10
67141;DHT22;54058;52.010;5.546;2022-07-03T10:32:32;26.60;52.60
67141;DHT22;54058;52.010;5.546;2022-07-03T10:34:58;26.60;54.40
67141;DHT22;54058;52.010;5.546;2022-07-03T10:37:23;26.50;54.30
67141;DHT22;54058;52.010;5.546;2022-07-03T10:42:26;26.70;52.60
67141;DHT22;54058;52.010;5.546;2022-07-03T10:45:11;26.80;53.70
67141;DHT22;54058;52.010;5.546;2022-07-03T10:50:12;27.00;52.80
67141;DHT22;54058;52.010;5.546;2022-07-03T10:52:38;27.00;52.20
67141;DHT22;54058;52.010;5.546;2022-07-03T10:55:04;27.10;52.50
67141;DHT22;54058;52.010;5.546;2022-07-03T10:57:35;27.00;53.50
67141;DHT22;54058;52.010;5.546;2022-07-03T11:00:03;26.90;52.70
67141;DHT22;54058;52.010;5.546;2022-07-03T11:07:32;27.00;51.80
67141;DHT22;54058;52.010;5.546;2022-07-03T11:18:13;27.10;51.60
67141;DHT22;54058;52.010;5.546;2022-07-03T11:25:39;27.30;51.40
67141;DHT22;54058;52.010;5.546;2022-07-03T11:28:05;27.10;51.30
67141;DHT22;54058;52.010;5.546;2022-07-03T11:30:31;27.10;49.40
67141;DHT22;54058;52.010;5.546;2022-07-03T11:32:57;27.10;51.50
67141;DHT22;54058;52.010;5.546;2022-07-03T11:38:16;27.30;51.00
67141;DHT22;54058;52.010;5.546;2022-07-03T11:40:42;27.20;50.10
67141;DHT22;54058;52.010;5.546;2022-07-03T11:43:11;27.10;51.40
67141;DHT22;54058;52.010;5.546;2022-07-03T11:45:40;27.10;51.20
67141;DHT22;54058;52.010;5.546;2022-07-03T11:48:07;27.20;51.50
67141;DHT22;54058;52.010;5.546;2022-07-03T11:50:39;27.00;50.30
67141;DHT22;54058;52.010;5.546;2022-07-03T11:53:15;26.70;50.90
67141;DHT22;54058;52.010;5.546;2022-07-03T11:55:47;26.50;51.50
67141;DHT22;54058;52.010;5.546;2022-07-03T11:58:13;26.30;51.90
67141;DHT22;54058;52.010;5.546;2022-07-03T12:00:38;25.90;52.90
67141;DHT22;54058;52.010;5.546;2022-07-03T12:03:04;25.80;54.90
67141;DHT22;54058;52.010;5.546;2022-07-03T12:05:30;25.80;53.10
67141;DHT22;54058;52.010;5.546;2022-07-03T12:08:02;25.80;53.90
67141;DHT22;54058;52.010;5.546;2022-07-03T12:10:40;25.90;53.80
67141;DHT22;54058;52.010;5.546;2022-07-03T12:13:21;26.10;53.10
67141;DHT22;54058;52.010;5.546;2022-07-03T12:15:47;26.30;52.90
67141;DHT22;54058;52.010;5.546;2022-07-03T12:18:13;26.50;51.90
67141;DHT22;54058;52.010;5.546;2022-07-03T12:20:39;26.60;50.50
67141;DHT22;54058;52.010;5.546;2022-07-03T12:23:05;26.60;50.30
67141;DHT22;54058;52.010;5.546;2022-07-03T12:25:30;26.50;50.10
67141;DHT22;54058;52.010;5.546;2022-07-03T12:27:56;26.50;50.30
67141;DHT22;54058;52.010;5.546;2022-07-03T12:30:22;26.50;50.70
67141;DHT22;54058;52.010;5.546;2022-07-03T12:32:50;26.50;50.00
67141;DHT22;54058;52.010;5.546;2022-07-03T12:35:25;26.50;47.80
67141;DHT22;54058;52.010;5.546;2022-07-03T12:37:50;26.40;49.80
67141;DHT22;54058;52.010;5.546;2022-07-03T12:40:16;26.40;50.40
67141;DHT22;54058;52.010;5.546;2022-07-03T12:42:43;26.30;50.10
67141;DHT22;54058;52.010;5.546;2022-07-03T12:45:12;26.10;50.00
67141;DHT22;54058;52.010;5.546;2022-07-03T12:47:39;26.00;50.90
67141;DHT22;54058;52.010;5.546;2022-07-03T12:50:05;26.20;50.90
67141;DHT22;54058;52.010;5.546;2022-07-03T12:52:32;26.10;51.90
67141;DHT22;54058;52.010;5.546;2022-07-03T12:54:58;26.10;50.80
67141;DHT22;54058;52.010;5.546;2022-07-03T12:57:23;26.20;52.30
67141;DHT22;54058;52.010;5.546;2022-07-03T13:02:34;26.00;51.90
67141;DHT22;54058;52.010;5.546;2022-07-03T13:05:01;25.90;51.20
67141;DHT22;54058;52.010;5.546;2022-07-03T13:07:27;25.80;51.50
67141;DHT22;54058;52.010;5.546;2022-07-03T13:09:53;25.80;51.60
67141;DHT22;54058;52.010;5.546;2022-07-03T13:12:22;25.90;52.00
67141;DHT22;54058;52.010;5.546;2022-07-03T13:15:01;26.00;51.30
67141;DHT22;54058;52.010;5.546;2022-07-03T13:20:11;25.90;50.90
67141;DHT22;54058;52.010;5.546;2022-07-03T13:22:36;25.90;52.80
67141;DHT22;54058;52.010;5.546;2022-07-03T13:25:02;26.00;52.90
67141;DHT22;54058;52.010;5.546;2022-07-03T13:27:27;26.00;53.10
67141;DHT22;54058;52.010;5.546;2022-07-03T13:29:53;25.90;53.50
67141;DHT22;54058;52.010;5.546;2022-07-03T13:32:18;25.70;54.50
67141;DHT22;54058;52.010;5.546;2022-07-03T13:34:44;25.70;54.10
67141;DHT22;54058;52.010;5.546;2022-07-03T13:37:09;25.70;53.80
67141;DHT22;54058;52.010;5.546;2022-07-03T13:39:35;25.70;52.60
67141;DHT22;54058;52.010;5.546;2022-07-03T13:42:00;25.70;53.40
67141;DHT22;54058;52.010;5.546;2022-07-03T13:44:26;25.80;52.90
67141;DHT22;54058;52.010;5.546;2022-07-03T13:46:52;25.60;51.30
67141;DHT22;54058;52.010;5.546;2022-07-03T13:49:17;25.50;53.90
67141;DHT22;54058;52.010;5.546;2022-07-03T13:51:43;25.40;52.20
67141;DHT22;54058;52.010;5.546;2022-07-03T13:54:08;25.40;53.40
67141;DHT22;54058;52.010;5.546;2022-07-03T13:56:34;25.50;53.00
67141;DHT22;54058;52.010;5.546;2022-07-03T13:58:59;25.40;53.10
67141;DHT22;54058;52.010;5.546;2022-07-03T14:01:25;25.40;53.10
67141;DHT22;54058;52.010;5.546;2022-07-03T14:03:50;25.30;54.40
67141;DHT22;54058;52.010;5.546;2022-07-03T14:06:16;25.20;53.00
67141;DHT22;54058;52.010;5.546;2022-07-03T14:08:41;25.00;52.50
67141;DHT22;54058;52.010;5.546;2022-07-03T14:11:07;24.90;52.90
67141;DHT22;54058;52.010;5.546;2022-07-03T14:13:32;24.90;53.70
67141;DHT22;54058;52.010;5.546;2022-07-03T14:15:59;24.80;53.90
67141;DHT22;54058;52.010;5.546;2022-07-03T14:18:24;24.80;53.80
67141;DHT22;54058;52.010;5.546;2022-07-03T14:20:50;24.90;54.10
67141;DHT22;54058;52.010;5.546;2022-07-03T14:23:15;25.00;54.10
67141;DHT22;54058;52.010;5.546;2022-07-03T14:25:41;25.20;55.00
67141;DHT22;54058;52.010;5.546;2022-07-03T14:28:06;25.20;54.50
67141;DHT22;54058;52.010;5.546;2022-07-03T14:30:51;25.30;55.00
67141;DHT22;54058;52.010;5.546;2022-07-03T14:33:35;25.20;53.80
67141;DHT22;54058;52.010;5.546;2022-07-03T14:36:00;25.10;53.90
67141;DHT22;54058;52.010;5.546;2022-07-03T14:38:26;24.80;52.40
67141;DHT22;54058;52.010;5.546;2022-07-03T14:40:51;24.70;52.50
67141;DHT22;54058;52.010;5.546;2022-07-03T14:43:17;24.60;54.50
67141;DHT22;54058;52.010;5.546;2022-07-03T14:45:43;24.40;52.50
67141;DHT22;54058;52.010;5.546;2022-07-03T14:48:08;24.30;52.30
67141;DHT22;54058;52.010;5.546;2022-07-03T14:50:34;24.20;53.90
67141;DHT22;54058;52.010;5.546;2022-07-03T14:52:59;24.10;53.40
67141;DHT22;54058;52.010;5.546;2022-07-03T14:55:31;24.10;53.70
67141;DHT22;54058;52.010;5.546;2022-07-03T14:58:04;24.20;54.00
67141;DHT22;54058;52.010;5.546;2022-07-03T15:00:30;24.20;53.30
67141;DHT22;54058;52.010;5.546;2022-07-03T15:05:23;24.20;53.30
67141;DHT22;54058;52.010;5.546;2022-07-03T15:08:09;24.20;53.60
67141;DHT22;54058;52.010;5.546;2022-07-03T15:10:36;24.20;53.00
67141;DHT22;54058;52.010;5.546;2022-07-03T15:13:05;24.20;52.20
67141;DHT22;54058;52.010;5.546;2022-07-03T15:15:31;24.20;51.90
67141;DHT22;54058;52.010;5.546;2022-07-03T15:17:59;24.10;51.90
67141;DHT22;54058;52.010;5.546;2022-07-03T15:20:30;24.20;52.60
67141;DHT22;54058;52.010;5.546;2022-07-03T15:22:55;24.20;52.00
67141;DHT22;54058;52.010;5.546;2022-07-03T15:25:22;24.20;52.20
67141;DHT22;54058;52.010;5.546;2022-07-03T15:27:52;24.20;51.60
67141;DHT22;54058;52.010;5.546;2022-07-03T15:30:18;24.20;51.60
67141;DHT22;54058;52.010;5.546;2022-07-03T15:32:48;24.20;52.60
67141;DHT22;54058;52.010;5.546;2022-07-03T15:35:14;24.10;52.30
67141;DHT22;54058;52.010;5.546;2022-07-03T15:40:28;24.00;51.80
67141;DHT22;54058;52.010;5.546;2022-07-03T15:42:57;24.10;52.90
67141;DHT22;54058;52.010;5.546;2022-07-03T15:53:14;23.80;52.70
67141;DHT22;54058;52.010;5.546;2022-07-03T15:55:42;23.80;53.30
67141;DHT22;54058;52.010;5.546;2022-07-03T15:58:07;23.80;53.40
67141;DHT22;54058;52.010;5.546;2022-07-03T16:00:35;23.80;52.00
67141;DHT22;54058;52.010;5.546;2022-07-03T16:03:08;23.70;52.00
67141;DHT22;54058;52.010;5.546;2022-07-03T16:05:35;23.70;52.40
67141;DHT22;54058;52.010;5.546;2022-07-03T16:08:02;23.50;53.30
67141;DHT22;54058;52.010;5.546;2022-07-03T16:10:27;23.40;53.30
67141;DHT22;54058;52.010;5.546;2022-07-03T16:12:55;23.40;53.90
67141;DHT22;54058;52.010;5.546;2022-07-03T16:15:23;23.40;53.40
67141;DHT22;54058;52.010;5.546;2022-07-03T16:17:49;23.40;53.30
67141;DHT22;54058;52.010;5.546;2022-07-03T16:20:19;23.30;53.70
67141;DHT22;54058;52.010;5.546;2022-07-03T16:22:44;23.20;54.20
67141;DHT22;54058;52.010;5.546;2022-07-03T16:25:11;23.20;53.90
67141;DHT22;54058;52.010;5.546;2022-07-03T16:27:36;23.20;53.90
67141;DHT22;54058;52.010;5.546;2022-07-03T16:30:02;23.20;53.60
67141;DHT22;54058;52.010;5.546;2022-07-03T16:32:35;23.30;54.10
67141;DHT22;54058;52.010;5.546;2022-07-03T16:35:05;23.20;53.50
67141;DHT22;54058;52.010;5.546;2022-07-03T16:37:40;23.20;53.00
67141;DHT22;54058;52.010;5.546;2022-07-03T16:40:09;23.20;53.00
67141;DHT22;54058;52.010;5.546;2022-07-03T16:42:35;23.10;53.10
67141;DHT22;54058;52.010;5.546;2022-07-03T16:45:06;23.10;53.90
67141;DHT22;54058;52.010;5.546;2022-07-03T16:47:34;23.10;53.50
67141;DHT22;54058;52.010;5.546;2022-07-03T16:50:01;23.10;53.70
67141;DHT22;54058;52.010;5.546;2022-07-03T16:52:27;23.00;54.00
67141;DHT22;54058;52.010;5.546;2022-07-03T16:54:53;23.00;53.60
67141;DHT22;54058;52.010;5.546;2022-07-03T16:57:26;23.00;53.80
67141;DHT22;54058;52.010;5.546;2022-07-03T16:59:51;23.00;53.60
67141;DHT22;54058;52.010;5.546;2022-07-03T17:02:18;22.90;53.50